Park Hills, Pennsylvania
Current Conditions -  °F | °C
As of 1:53 PM on Monday 20 Oct 2014 (Local Time) from KTHV Reporting Station
Clear Clear  
Wind Chill: 62°   Ceiling: Unl
Heat Index: 62°   Visibility: 10mi
Dew Point: 38°   Wind: 10mph
Humidity: 41%   Direction: 200°SSW
Pressure: 29.98"   Gusts: NA
Location:  39.7863°N, 76.988°W
Report Text: KTHV 201753Z AUTO 20009KT 170V240 10SM CLR 17/03 A2998 RMK AO2 SLP155 T01670033 10167 20006 58030
Loading
Personal Weather Stations






























Interactive Weather Map
Tropical Storm Tracking
New forecast layout! Learn more

10-Day Weather Forecast

Advertisements
Track Severe Weather on mobile